sensor_id;sensor_type;location;lat;lon;timestamp;pressure;altitude;pressure_sealevel;temperature;humidity
8451;BME280;4262;50.980;13.892;2023-01-16T04:32:45;50731.38;;;-142.97;62.38
8451;BME280;4262;50.980;13.892;2023-01-16T04:35:11;50750.88;;;-142.97;62.01
8451;BME280;4262;50.980;13.892;2023-01-16T04:37:38;50741.13;;;-142.97;62.21
8451;BME280;4262;50.980;13.892;2023-01-16T04:40:06;50772.34;;;-142.97;62.04
8451;BME280;4262;50.980;13.892;2023-01-16T04:42:34;50737.25;;;-142.97;61.82
8451;BME280;4262;50.980;13.892;2023-01-16T04:45:01;50754.78;;;-142.97;62.19
8451;BME280;4262;50.980;13.892;2023-01-16T04:47:28;50774.28;;;-142.97;61.71
8451;BME280;4262;50.980;13.892;2023-01-16T04:49:56;50756.75;;;-142.97;61.66
8451;BME280;4262;50.980;13.892;2023-01-16T04:52:23;50721.63;;;-142.97;61.60
8451;BME280;4262;50.980;13.892;2023-01-16T04:54:50;50774.28;;;-142.97;61.91
8451;BME280;4262;50.980;13.892;2023-01-16T04:57:18;50752.84;;;-142.97;61.13
8451;BME280;4262;50.980;13.892;2023-01-16T04:59:44;50743.09;;;-142.97;61.57
8451;BME280;4262;50.980;13.892;2023-01-16T05:02:13;50743.09;;;-142.97;60.99
8451;BME280;4262;50.980;13.892;2023-01-16T05:04:39;50743.09;;;-142.97;61.09
8451;BME280;4262;50.980;13.892;2023-01-16T05:07:07;50784.03;;;-142.97;61.21
8451;BME280;4262;50.980;13.892;2023-01-16T05:09:34;50706.03;;;-142.97;60.52
8451;BME280;4262;50.980;13.892;2023-01-16T05:12:01;50770.38;;;-142.97;60.33
8451;BME280;4262;50.980;13.892;2023-01-16T05:14:27;50785.97;;;-142.97;60.71
8451;BME280;4262;50.980;13.892;2023-01-16T05:16:54;50780.13;;;-142.97;60.46
8451;BME280;4262;50.980;13.892;2023-01-16T05:19:20;50741.13;;;-142.97;61.06
8451;BME280;4262;50.980;13.892;2023-01-16T05:21:47;50743.09;;;-142.97;61.30
8451;BME280;4262;50.980;13.892;2023-01-16T05:24:15;50762.59;;;-142.97;61.31
8451;BME280;4262;50.980;13.892;2023-01-16T05:26:42;50770.38;;;-142.97;61.05
8451;BME280;4262;50.980;13.892;2023-01-16T05:29:08;50743.09;;;-142.97;61.56
8451;BME280;4262;50.980;13.892;2023-01-16T05:31:35;50762.59;;;-142.97;60.75
8451;BME280;4262;50.980;13.892;2023-01-16T05:34:02;50764.53;;;-142.97;61.31
8451;BME280;4262;50.980;13.892;2023-01-16T05:36:28;50785.97;;;-142.97;61.54
8451;BME280;4262;50.980;13.892;2023-01-16T05:38:55;50760.63;;;-142.97;61.15
8451;BME280;4262;50.980;13.892;2023-01-16T05:41:23;50774.28;;;-142.97;61.21
8451;BME280;4262;50.980;13.892;2023-01-16T05:43:50;50793.78;;;-142.97;61.44
8451;BME280;4262;50.980;13.892;2023-01-16T05:46:17;50721.63;;;-142.97;61.25
8451;BME280;4262;50.980;13.892;2023-01-16T05:48:44;50768.44;;;-142.97;61.78
8451;BME280;4262;50.980;13.892;2023-01-16T05:51:10;50785.97;;;-142.97;61.54
8451;BME280;4262;50.980;13.892;2023-01-16T05:53:38;50756.75;;;-142.97;61.93
8451;BME280;4262;50.980;13.892;2023-01-16T05:56:09;50748.94;;;-142.97;61.00
8451;BME280;4262;50.980;13.892;2023-01-16T05:58:39;50774.28;;;-142.97;61.56
8451;BME280;4262;50.980;13.892;2023-01-16T06:01:05;50739.19;;;-142.97;61.25
8451;BME280;4262;50.980;13.892;2023-01-16T06:03:32;50750.88;;;-142.97;62.05
8451;BME280;4262;50.980;13.892;2023-01-16T06:05:59;50774.28;;;-142.97;61.90
8451;BME280;4262;50.980;13.892;2023-01-16T06:08:27;50743.09;;;-142.97;61.85
8451;BME280;4262;50.980;13.892;2023-01-16T06:10:56;50760.63;;;-142.97;61.60
8451;BME280;4262;50.980;13.892;2023-01-16T06:13:23;50733.34;;;-142.97;61.56
8451;BME280;4262;50.980;13.892;2023-01-16T06:15:51;50750.88;;;-142.97;61.41
8451;BME280;4262;50.980;13.892;2023-01-16T06:18:18;50780.13;;;-142.97;61.54
8451;BME280;4262;50.980;13.892;2023-01-16T06:20:44;50750.88;;;-142.97;61.61
8451;BME280;4262;50.980;13.892;2023-01-16T06:23:11;50750.88;;;-142.97;61.53
8451;BME280;4262;50.980;13.892;2023-01-16T06:25:38;50805.50;;;-142.97;60.70
8451;BME280;4262;50.980;13.892;2023-01-16T06:28:05;50723.59;;;-142.97;60.98
8451;BME280;4262;50.980;13.892;2023-01-16T06:30:32;50743.09;;;-142.97;61.00
8451;BME280;4262;50.980;13.892;2023-01-16T06:32:59;50776.25;;;-142.97;60.93
8451;BME280;4262;50.980;13.892;2023-01-16T06:35:26;50778.19;;;-142.97;60.28
8451;BME280;4262;50.980;13.892;2023-01-16T06:37:55;50745.03;;;-142.97;61.20
8451;BME280;4262;50.980;13.892;2023-01-16T06:40:21;50776.25;;;-142.97;60.54
8451;BME280;4262;50.980;13.892;2023-01-16T06:42:48;50768.44;;;-142.97;60.64
8451;BME280;4262;50.980;13.892;2023-01-16T06:45:16;50768.44;;;-142.97;60.35
8451;BME280;4262;50.980;13.892;2023-01-16T06:47:50;50793.78;;;-142.97;60.59
8451;BME280;4262;50.980;13.892;2023-01-16T06:50:18;50748.94;;;-142.97;60.42
8451;BME280;4262;50.980;13.892;2023-01-16T06:52:45;50727.50;;;-142.97;60.52
8451;BME280;4262;50.980;13.892;2023-01-16T06:55:12;50768.44;;;-142.97;61.05
8451;BME280;4262;50.980;13.892;2023-01-16T06:57:40;50776.25;;;-142.97;60.85
8451;BME280;4262;50.980;13.892;2023-01-16T07:00:09;50756.75;;;-142.97;60.40
8451;BME280;4262;50.980;13.892;2023-01-16T07:02:35;50764.53;;;-142.97;60.74
8451;BME280;4262;50.980;13.892;2023-01-16T07:05:07;50780.13;;;-142.97;60.71
8451;BME280;4262;50.980;13.892;2023-01-16T07:07:35;50743.09;;;-142.97;60.87
8451;BME280;4262;50.980;13.892;2023-01-16T07:10:02;50750.88;;;-142.97;60.80
8451;BME280;4262;50.980;13.892;2023-01-16T07:12:30;50776.25;;;-142.97;60.35
8451;BME280;4262;50.980;13.892;2023-01-16T07:14:56;50787.94;;;-142.97;61.08
8451;BME280;4262;50.980;13.892;2023-01-16T07:17:42;50733.34;;;-142.97;60.66
8451;BME280;4262;50.980;13.892;2023-01-16T07:20:26;50747.00;;;-142.97;60.44
8451;BME280;4262;50.980;13.892;2023-01-16T07:23:18;50776.25;;;-142.97;60.15
8451;BME280;4262;50.980;13.892;2023-01-16T07:25:46;50760.63;;;-142.97;60.22
8451;BME280;4262;50.980;13.892;2023-01-16T07:28:17;50741.13;;;-142.97;60.56
8451;BME280;4262;50.980;13.892;2023-01-16T07:30:45;50774.28;;;-142.97;59.43
8451;BME280;4262;50.980;13.892;2023-01-16T07:33:12;50762.59;;;-142.97;59.44
8451;BME280;4262;50.980;13.892;2023-01-16T07:35:39;50758.69;;;-142.97;59.44
8451;BME280;4262;50.980;13.892;2023-01-16T07:38:08;50754.78;;;-142.97;59.79
8451;BME280;4262;50.980;13.892;2023-01-16T07:40:36;50745.03;;;-142.97;59.91
8451;BME280;4262;50.980;13.892;2023-01-16T07:43:02;50743.09;;;-142.97;59.04
8451;BME280;4262;50.980;13.892;2023-01-16T07:45:30;50784.03;;;-142.97;59.35
8451;BME280;4262;50.980;13.892;2023-01-16T07:47:58;50725.53;;;-142.97;59.39
8451;BME280;4262;50.980;13.892;2023-01-16T07:50:26;50764.53;;;-142.97;59.00
8451;BME280;4262;50.980;13.892;2023-01-16T07:52:53;50764.53;;;-142.97;59.03
8451;BME280;4262;50.980;13.892;2023-01-16T07:55:20;50747.00;;;-142.97;59.04
8451;BME280;4262;50.980;13.892;2023-01-16T07:57:49;50754.78;;;-142.97;59.14
8451;BME280;4262;50.980;13.892;2023-01-16T08:00:16;50733.34;;;-142.97;59.49
8451;BME280;4262;50.980;13.892;2023-01-16T08:02:43;50754.78;;;-142.97;59.19
8451;BME280;4262;50.980;13.892;2023-01-16T08:05:10;50754.78;;;-142.97;59.31
8451;BME280;4262;50.980;13.892;2023-01-16T08:07:36;50745.03;;;-142.97;59.22
8451;BME280;4262;50.980;13.892;2023-01-16T08:10:04;50745.03;;;-142.97;59.92
8451;BME280;4262;50.980;13.892;2023-01-16T08:12:31;50764.53;;;-142.97;60.16
8451;BME280;4262;50.980;13.892;2023-01-16T08:14:59;50776.25;;;-142.97;59.50
8451;BME280;4262;50.980;13.892;2023-01-16T08:17:27;50725.53;;;-142.97;60.19
8451;BME280;4262;50.980;13.892;2023-01-16T08:19:55;50715.78;;;-142.97;59.90
8451;BME280;4262;50.980;13.892;2023-01-16T08:22:21;50735.28;;;-142.97;59.87
8451;BME280;4262;50.980;13.892;2023-01-16T08:24:48;50721.63;;;-142.97;59.36
8451;BME280;4262;50.980;13.892;2023-01-16T08:27:15;50745.03;;;-142.97;59.19
8451;BME280;4262;50.980;13.892;2023-01-16T08:29:42;50776.25;;;-142.97;58.90
8451;BME280;4262;50.980;13.892;2023-01-16T08:32:11;50725.53;;;-142.97;58.47
8451;BME280;4262;50.980;13.892;2023-01-16T08:34:38;50750.88;;;-142.97;58.33
8451;BME280;4262;50.980;13.892;2023-01-16T08:37:05;50735.28;;;-142.97;57.70
8451;BME280;4262;50.980;13.892;2023-01-16T08:39:32;50776.25;;;-142.97;57.02
8451;BME280;4262;50.980;13.892;2023-01-16T08:41:59;50747.00;;;-142.97;57.13
8451;BME280;4262;50.980;13.892;2023-01-16T08:44:43;50748.94;;;-142.97;57.44
8451;BME280;4262;50.980;13.892;2023-01-16T08:47:31;50715.78;;;-142.97;56.97
8451;BME280;4262;50.980;13.892;2023-01-16T08:50:17;50774.28;;;-142.97;56.95
8451;BME280;4262;50.980;13.892;2023-01-16T08:53:01;50772.34;;;-142.97;56.39
8451;BME280;4262;50.980;13.892;2023-01-16T08:55:28;50747.00;;;-142.97;56.03
8451;BME280;4262;50.980;13.892;2023-01-16T08:57:55;50770.38;;;-142.97;56.27
8451;BME280;4262;50.980;13.892;2023-01-16T09:00:25;50787.94;;;-142.97;55.46
8451;BME280;4262;50.980;13.892;2023-01-16T09:02:53;50758.69;;;-142.97;55.84
8451;BME280;4262;50.980;13.892;2023-01-16T09:05:21;50758.69;;;-142.97;55.23
8451;BME280;4262;50.980;13.892;2023-01-16T09:07:48;50785.97;;;-142.97;55.23
8451;BME280;4262;50.980;13.892;2023-01-16T09:10:15;50756.75;;;-142.97;55.10
8451;BME280;4262;50.980;13.892;2023-01-16T09:12:42;50752.84;;;-142.97;55.14
8451;BME280;4262;50.980;13.892;2023-01-16T09:15:27;50758.69;;;-142.97;54.11
8451;BME280;4262;50.980;13.892;2023-01-16T09:17:57;50772.34;;;-142.97;55.22
8451;BME280;4262;50.980;13.892;2023-01-16T09:20:24;50717.75;;;-142.97;55.74
8451;BME280;4262;50.980;13.892;2023-01-16T09:22:56;50747.00;;;-142.97;55.93
8451;BME280;4262;50.980;13.892;2023-01-16T09:25:23;50758.69;;;-142.97;55.38
8451;BME280;4262;50.980;13.892;2023-01-16T09:27:50;50754.78;;;-142.97;55.47
8451;BME280;4262;50.980;13.892;2023-01-16T09:30:17;50784.03;;;-142.97;55.56
8451;BME280;4262;50.980;13.892;2023-01-16T09:32:46;50752.84;;;-142.97;54.97
8451;BME280;4262;50.980;13.892;2023-01-16T09:35:14;50745.03;;;-142.97;54.16
8451;BME280;4262;50.980;13.892;2023-01-16T09:37:42;50758.69;;;-142.97;53.58
8451;BME280;4262;50.980;13.892;2023-01-16T09:40:15;50778.19;;;-142.97;52.21
8451;BME280;4262;50.980;13.892;2023-01-16T09:42:53;50762.59;;;-142.97;52.33
8451;BME280;4262;50.980;13.892;2023-01-16T09:45:43;50774.28;;;-142.97;52.26
8451;BME280;4262;50.980;13.892;2023-01-16T09:48:14;50731.38;;;-142.97;51.70
8451;BME280;4262;50.980;13.892;2023-01-16T09:50:46;50782.09;;;-142.97;51.23
8451;BME280;4262;50.980;13.892;2023-01-16T09:53:18;50735.28;;;-142.97;51.19
8451;BME280;4262;50.980;13.892;2023-01-16T09:56:04;50737.25;;;-142.97;51.15
8451;BME280;4262;50.980;13.892;2023-01-16T09:58:57;50748.94;;;-142.97;50.20
8451;BME280;4262;50.980;13.892;2023-01-16T10:01:31;50774.28;;;-142.97;50.19
8451;BME280;4262;50.980;13.892;2023-01-16T10:04:09;50780.13;;;-142.97;49.38
8451;BME280;4262;50.980;13.892;2023-01-16T10:06:42;50750.88;;;-142.97;49.02
8451;BME280;4262;50.980;13.892;2023-01-16T10:09:16;50620.25;;;-142.97;46.42
8451;BME280;4262;50.980;13.892;2023-01-16T10:11:50;50577.34;;;-142.97;41.35
8451;BME280;4262;50.980;13.892;2023-01-16T10:14:34;50524.72;;;-142.97;39.29
8451;BME280;4262;50.980;13.892;2023-01-16T10:17:15;50513.00;;;-142.97;38.35
8451;BME280;4262;50.980;13.892;2023-01-16T10:19:54;50530.56;;;-142.97;36.53
8451;BME280;4262;50.980;13.892;2023-01-16T10:22:34;50542.25;;;-142.97;34.31
8451;BME280;4262;50.980;13.892;2023-01-16T10:25:18;50553.94;;;-142.97;33.60
8451;BME280;4262;50.980;13.892;2023-01-16T10:27:52;50516.91;;;-142.97;33.22
8451;BME280;4262;50.980;13.892;2023-01-16T10:30:25;50524.72;;;-142.97;33.10
8451;BME280;4262;50.980;13.892;2023-01-16T10:32:59;50514.97;;;-142.97;34.54
8451;BME280;4262;50.980;13.892;2023-01-16T10:35:32;50563.69;;;-142.97;33.96
8451;BME280;4262;50.980;13.892;2023-01-16T10:38:12;50495.47;;;-142.97;34.06
8451;BME280;4262;50.980;13.892;2023-01-16T10:40:45;50497.41;;;-142.97;34.50
8451;BME280;4262;50.980;13.892;2023-01-16T10:43:16;50454.50;;;-142.97;34.40
8451;BME280;4262;50.980;13.892;2023-01-16T10:46:11;50497.41;;;-142.97;34.01
8451;BME280;4262;50.980;13.892;2023-01-16T10:48:59;50526.66;;;-142.97;34.58
8451;BME280;4262;50.980;13.892;2023-01-16T10:51:43;50511.06;;;-142.97;33.54
8451;BME280;4262;50.980;13.892;2023-01-16T10:54:11;50522.75;;;-142.97;33.27
8451;BME280;4262;50.980;13.892;2023-01-16T10:56:38;50514.97;;;-142.97;32.57
8451;BME280;4262;50.980;13.892;2023-01-16T10:59:08;50513.00;;;-142.97;32.27
8451;BME280;4262;50.980;13.892;2023-01-16T11:01:39;50501.31;;;-142.97;32.53
8451;BME280;4262;50.980;13.892;2023-01-16T11:04:10;50501.31;;;-142.97;33.65
8451;BME280;4262;50.980;13.892;2023-01-16T11:06:38;50524.72;;;-142.97;33.58
8451;BME280;4262;50.980;13.892;2023-01-16T11:09:17;50526.66;;;-142.97;32.49
8451;BME280;4262;50.980;13.892;2023-01-16T11:11:45;50485.72;;;-142.97;31.73
8451;BME280;4262;50.980;13.892;2023-01-16T11:14:35;50499.34;;;-142.97;32.17
8451;BME280;4262;50.980;13.892;2023-01-16T11:17:24;50514.97;;;-142.97;32.02
8451;BME280;4262;50.980;13.892;2023-01-16T11:20:14;50495.47;;;-142.97;31.95
8451;BME280;4262;50.980;13.892;2023-01-16T11:22:45;50495.47;;;-142.97;32.27
8451;BME280;4262;50.980;13.892;2023-01-16T11:25:16;50501.31;;;-142.97;31.99
8451;BME280;4262;50.980;13.892;2023-01-16T11:27:46;50524.72;;;-142.97;31.96
8451;BME280;4262;50.980;13.892;2023-01-16T11:30:18;50477.91;;;-142.97;32.46
8451;BME280;4262;50.980;13.892;2023-01-16T11:32:48;50493.50;;;-142.97;32.26
8451;BME280;4262;50.980;13.892;2023-01-16T11:35:17;50503.25;;;-142.97;32.29
8451;BME280;4262;50.980;13.892;2023-01-16T11:37:45;50477.91;;;-142.97;32.06
8451;BME280;4262;50.980;13.892;2023-01-16T11:40:20;50489.63;;;-142.97;31.59
8451;BME280;4262;50.980;13.892;2023-01-16T11:42:52;50514.97;;;-142.97;31.72
8451;BME280;4262;50.980;13.892;2023-01-16T11:45:43;50477.91;;;-142.97;31.71
8451;BME280;4262;50.980;13.892;2023-01-16T11:48:27;50503.25;;;-142.97;32.52
8451;BME280;4262;50.980;13.892;2023-01-16T11:50:55;50511.06;;;-142.97;32.22
8451;BME280;4262;50.980;13.892;2023-01-16T11:53:22;50518.84;;;-142.97;33.21
8451;BME280;4262;50.980;13.892;2023-01-16T11:56:06;50509.09;;;-142.97;33.60
8451;BME280;4262;50.980;13.892;2023-01-16T11:58:45;50452.56;;;-142.97;33.28
8451;BME280;4262;50.980;13.892;2023-01-16T12:01:21;50503.25;;;-142.97;32.80
8451;BME280;4262;50.980;13.892;2023-01-16T12:04:00;50540.31;;;-142.97;33.79
8451;BME280;4262;50.980;13.892;2023-01-16T12:06:50;50499.34;;;-142.97;33.11
8451;BME280;4262;50.980;13.892;2023-01-16T12:09:28;50509.09;;;-142.97;33.28
8451;BME280;4262;50.980;13.892;2023-01-16T12:12:15;50540.31;;;-142.97;32.84
8451;BME280;4262;50.980;13.892;2023-01-16T12:15:03;50514.97;;;-142.97;32.30
8451;BME280;4262;50.980;13.892;2023-01-16T12:17:46;50497.41;;;-142.97;31.72
8451;BME280;4262;50.980;13.892;2023-01-16T12:20:19;50503.25;;;-142.97;30.77
8451;BME280;4262;50.980;13.892;2023-01-16T12:23:05;50511.06;;;-142.97;30.67
8451;BME280;4262;50.980;13.892;2023-01-16T12:25:43;50518.84;;;-142.97;29.73
8451;BME280;4262;50.980;13.892;2023-01-16T12:28:32;50513.00;;;-142.97;29.46
8451;BME280;4262;50.980;13.892;2023-01-16T12:31:13;50524.72;;;-142.97;28.98
8451;BME280;4262;50.980;13.892;2023-01-16T12:34:16;50518.84;;;-142.97;30.19
8451;BME280;4262;50.980;13.892;2023-01-16T12:36:55;50581.25;;;-142.97;30.67
8451;BME280;4262;50.980;13.892;2023-01-16T12:39:35;50520.81;;;-142.97;31.24
8451;BME280;4262;50.980;13.892;2023-01-16T12:42:12;50540.31;;;-142.97;31.35
8451;BME280;4262;50.980;13.892;2023-01-16T12:45:13;50544.19;;;-142.97;31.71
8451;BME280;4262;50.980;13.892;2023-01-16T12:47:56;50513.00;;;-142.97;31.41
8451;BME280;4262;50.980;13.892;2023-01-16T12:50:37;50505.22;;;-142.97;32.06
8451;BME280;4262;50.980;13.892;2023-01-16T12:53:36;50513.00;;;-142.97;32.16
8451;BME280;4262;50.980;13.892;2023-01-16T12:56:24;50513.00;;;-142.97;32.49
8451;BME280;4262;50.980;13.892;2023-01-16T12:58:57;50513.00;;;-142.97;33.01
8451;BME280;4262;50.980;13.892;2023-01-16T13:01:30;50513.00;;;-142.97;32.45
8451;BME280;4262;50.980;13.892;2023-01-16T13:04:06;50552.00;;;-142.97;33.28
8451;BME280;4262;50.980;13.892;2023-01-16T13:06:40;50514.97;;;-142.97;32.91
8451;BME280;4262;50.980;13.892;2023-01-16T13:09:30;50532.50;;;-142.97;32.95
8451;BME280;4262;50.980;13.892;2023-01-16T13:12:07;50534.47;;;-142.97;32.48
8451;BME280;4262;50.980;13.892;2023-01-16T13:14:57;50760.63;;;-142.97;32.84
8451;BME280;4262;50.980;13.892;2023-01-16T13:17:49;50503.25;;;-142.97;33.77
8451;BME280;4262;50.980;13.892;2023-01-16T13:20:18;50577.34;;;-142.97;33.61
8451;BME280;4262;50.980;13.892;2023-01-16T13:22:49;50557.84;;;-142.97;34.43
8451;BME280;4262;50.980;13.892;2023-01-16T13:25:21;50573.44;;;-142.97;33.92
8451;BME280;4262;50.980;13.892;2023-01-16T13:27:53;50559.81;;;-142.97;34.29
8451;BME280;4262;50.980;13.892;2023-01-16T13:30:22;50733.34;;;-142.97;34.82
8451;BME280;4262;50.980;13.892;2023-01-16T13:32:52;50723.59;;;-142.97;36.44
8451;BME280;4262;50.980;13.892;2023-01-16T13:35:24;50628.03;;;-142.97;36.71
8451;BME280;4262;50.980;13.892;2023-01-16T13:38:23;50727.50;;;-142.97;36.85
8451;BME280;4262;50.980;13.892;2023-01-16T13:41:09;50661.19;;;-142.97;37.00
8451;BME280;4262;50.980;13.892;2023-01-16T13:43:41;50655.34;;;-142.97;36.54
8451;BME280;4262;50.980;13.892;2023-01-16T13:46:28;50723.59;;;-142.97;36.83
8451;BME280;4262;50.980;13.892;2023-01-16T13:48:59;50702.13;;;-142.97;37.40
8451;BME280;4262;50.980;13.892;2023-01-16T13:51:27;50739.19;;;-142.97;38.18
8451;BME280;4262;50.980;13.892;2023-01-16T13:53:56;50739.19;;;-142.97;39.01
8451;BME280;4262;50.980;13.892;2023-01-16T13:56:25;50741.13;;;-142.97;39.56
8451;BME280;4262;50.980;13.892;2023-01-16T13:58:56;50731.38;;;-142.97;40.55
8451;BME280;4262;50.980;13.892;2023-01-16T14:01:31;50727.50;;;-142.97;40.05
8451;BME280;4262;50.980;13.892;2023-01-16T14:04:30;50768.44;;;-142.97;40.21
8451;BME280;4262;50.980;13.892;2023-01-16T14:06:59;50725.53;;;-142.97;40.64
8451;BME280;4262;50.980;13.892;2023-01-16T14:09:58;50743.09;;;-142.97;40.30
8451;BME280;4262;50.980;13.892;2023-01-16T14:12:34;50735.28;;;-142.97;40.45
8451;BME280;4262;50.980;13.892;2023-01-16T14:15:16;50768.44;;;-142.97;41.14
8451;BME280;4262;50.980;13.892;2023-01-16T14:18:17;50735.28;;;-142.97;41.30
8451;BME280;4262;50.980;13.892;2023-01-16T14:20:50;50708.00;;;-142.97;41.32
8451;BME280;4262;50.980;13.892;2023-01-16T14:23:23;50741.13;;;-142.97;41.75
8451;BME280;4262;50.980;13.892;2023-01-16T14:26:08;50721.63;;;-142.97;42.16
8451;BME280;4262;50.980;13.892;2023-01-16T14:28:37;50725.53;;;-142.97;42.33
8451;BME280;4262;50.980;13.892;2023-01-16T14:31:18;50745.03;;;-142.97;42.35
8451;BME280;4262;50.980;13.892;2023-01-16T14:33:47;50731.38;;;-142.97;42.48
8451;BME280;4262;50.980;13.892;2023-01-16T14:36:22;50752.84;;;-142.97;42.71
8451;BME280;4262;50.980;13.892;2023-01-16T14:38:50;50727.50;;;-142.97;43.30
8451;BME280;4262;50.980;13.892;2023-01-16T14:41:26;50725.53;;;-142.97;43.27
8451;BME280;4262;50.980;13.892;2023-01-16T14:44:15;50713.84;;;-142.97;43.61
8451;BME280;4262;50.980;13.892;2023-01-16T14:47:08;50741.13;;;-142.97;43.82
8451;BME280;4262;50.980;13.892;2023-01-16T14:50:05;50750.88;;;-142.97;44.03
8451;BME280;4262;50.980;13.892;2023-01-16T14:53:12;50733.34;;;-142.97;44.35
8451;BME280;4262;50.980;13.892;2023-01-16T14:55:59;50737.25;;;-142.97;44.08
8451;BME280;4262;50.980;13.892;2023-01-16T14:58:34;50702.13;;;-142.97;44.63
8451;BME280;4262;50.980;13.892;2023-01-16T15:01:03;50747.00;;;-142.97;44.77
8451;BME280;4262;50.980;13.892;2023-01-16T15:03:49;50733.34;;;-142.97;44.89
8451;BME280;4262;50.980;13.892;2023-01-16T15:06:17;50711.88;;;-142.97;45.16
8451;BME280;4262;50.980;13.892;2023-01-16T15:08:45;50709.94;;;-142.97;45.55
8451;BME280;4262;50.980;13.892;2023-01-16T15:11:22;50733.34;;;-142.97;45.71
8451;BME280;4262;50.980;13.892;2023-01-16T15:14:07;50747.00;;;-142.97;45.77
8451;BME280;4262;50.980;13.892;2023-01-16T15:17:03;50713.84;;;-142.97;45.52
8451;BME280;4262;50.980;13.892;2023-01-16T15:19:59;50711.88;;;-142.97;45.82
8451;BME280;4262;50.980;13.892;2023-01-16T15:22:47;50735.28;;;-142.97;46.17
8451;BME280;4262;50.980;13.892;2023-01-16T15:25:29;50731.38;;;-142.97;46.06
8451;BME280;4262;50.980;13.892;2023-01-16T15:28:04;50711.88;;;-142.97;46.80
8451;BME280;4262;50.980;13.892;2023-01-16T15:30:34;50709.94;;;-142.97;46.31
8451;BME280;4262;50.980;13.892;2023-01-16T15:33:01;50733.34;;;-142.97;47.02
8451;BME280;4262;50.980;13.892;2023-01-16T15:35:42;50733.34;;;-142.97;47.02
8451;BME280;4262;50.980;13.892;2023-01-16T15:38:09;50717.75;;;-142.97;47.45
8451;BME280;4262;50.980;13.892;2023-01-16T15:40:38;50715.78;;;-142.97;47.40
8451;BME280;4262;50.980;13.892;2023-01-16T15:43:15;50764.53;;;-142.97;47.71
8451;BME280;4262;50.980;13.892;2023-01-16T15:46:05;50748.94;;;-142.97;48.25
8451;BME280;4262;50.980;13.892;2023-01-16T15:49:01;50709.94;;;-142.97;48.49
8451;BME280;4262;50.980;13.892;2023-01-16T15:51:29;50719.69;;;-142.97;49.00
8451;BME280;4262;50.980;13.892;2023-01-16T15:53:57;50723.59;;;-142.97;49.04
8451;BME280;4262;50.980;13.892;2023-01-16T15:56:32;50719.69;;;-142.97;49.30
8451;BME280;4262;50.980;13.892;2023-01-16T15:58:59;50745.03;;;-142.97;49.38
8451;BME280;4262;50.980;13.892;2023-01-16T16:01:27;50756.75;;;-142.97;49.52
8451;BME280;4262;50.980;13.892;2023-01-16T16:03:55;50727.50;;;-142.97;50.11
8451;BME280;4262;50.980;13.892;2023-01-16T16:06:22;50717.75;;;-142.97;50.22
8451;BME280;4262;50.980;13.892;2023-01-16T16:08:52;50733.34;;;-142.97;50.11
8451;BME280;4262;50.980;13.892;2023-01-16T16:11:21;50748.94;;;-142.97;50.78
8451;BME280;4262;50.980;13.892;2023-01-16T16:14:12;50735.28;;;-142.97;50.98
8451;BME280;4262;50.980;13.892;2023-01-16T16:17:00;50731.38;;;-142.97;50.71
8451;BME280;4262;50.980;13.892;2023-01-16T16:19:44;50721.63;;;-142.97;51.19
8451;BME280;4262;50.980;13.892;2023-01-16T16:22:13;50719.69;;;-142.97;51.54
8451;BME280;4262;50.980;13.892;2023-01-16T16:25:07;50737.25;;;-142.97;51.21
8451;BME280;4262;50.980;13.892;2023-01-16T16:27:33;50737.25;;;-142.97;51.77
8451;BME280;4262;50.980;13.892;2023-01-16T16:30:03;50719.69;;;-142.97;51.78
8451;BME280;4262;50.980;13.892;2023-01-16T16:32:35;50719.69;;;-142.97;51.90
8451;BME280;4262;50.980;13.892;2023-01-16T16:35:03;50756.75;;;-142.97;52.16
8451;BME280;4262;50.980;13.892;2023-01-16T16:37:30;50760.63;;;-142.97;52.19
8451;BME280;4262;50.980;13.892;2023-01-16T16:40:06;50704.09;;;-142.97;52.49
8451;BME280;4262;50.980;13.892;2023-01-16T16:42:48;50743.09;;;-142.97;52.79
8451;BME280;4262;50.980;13.892;2023-01-16T16:45:23;50764.53;;;-142.97;52.59
8451;BME280;4262;50.980;13.892;2023-01-16T16:48:18;50723.59;;;-142.97;52.94
8451;BME280;4262;50.980;13.892;2023-01-16T16:50:45;50739.19;;;-142.97;52.86
8451;BME280;4262;50.980;13.892;2023-01-16T16:53:22;50733.34;;;-142.97;53.05
8451;BME280;4262;50.980;13.892;2023-01-16T16:55:51;50735.28;;;-142.97;52.67
8451;BME280;4262;50.980;13.892;2023-01-16T16:58:20;50729.44;;;-142.97;52.93
8451;BME280;4262;50.980;13.892;2023-01-16T17:00:51;50756.75;;;-142.97;52.75
8451;BME280;4262;50.980;13.892;2023-01-16T17:03:19;50752.84;;;-142.97;52.50
8451;BME280;4262;50.980;13.892;2023-01-16T17:05:47;50723.59;;;-142.97;52.96
8451;BME280;4262;50.980;13.892;2023-01-16T17:08:19;50733.34;;;-142.97;52.48
8451;BME280;4262;50.980;13.892;2023-01-16T17:10:46;50698.25;;;-142.97;52.06
8451;BME280;4262;50.980;13.892;2023-01-16T17:13:14;50723.59;;;-142.97;52.19
8451;BME280;4262;50.980;13.892;2023-01-16T17:15:41;50735.28;;;-142.97;52.64
8451;BME280;4262;50.980;13.892;2023-01-16T17:18:09;50735.28;;;-142.97;52.81
8451;BME280;4262;50.980;13.892;2023-01-16T17:20:37;50774.28;;;-142.97;52.33
8451;BME280;4262;50.980;13.892;2023-01-16T17:23:09;50785.97;;;-142.97;52.11
8451;BME280;4262;50.980;13.892;2023-01-16T17:25:36;50721.63;;;-142.97;52.50
8451;BME280;4262;50.980;13.892;2023-01-16T17:28:03;50729.44;;;-142.97;52.43
8451;BME280;4262;50.980;13.892;2023-01-16T17:30:31;50725.53;;;-142.97;52.23
8451;BME280;4262;50.980;13.892;2023-01-16T17:33:00;50731.38;;;-142.97;51.64
8451;BME280;4262;50.980;13.892;2023-01-16T17:35:35;50735.28;;;-142.97;51.39
8451;BME280;4262;50.980;13.892;2023-01-16T17:38:02;50733.34;;;-142.97;51.49
8451;BME280;4262;50.980;13.892;2023-01-16T17:40:30;50764.53;;;-142.97;51.49
8451;BME280;4262;50.980;13.892;2023-01-16T17:42:56;50743.09;;;-142.97;51.71
8451;BME280;4262;50.980;13.892;2023-01-16T17:45:44;50770.38;;;-142.97;51.75
8451;BME280;4262;50.980;13.892;2023-01-16T17:48:22;50737.25;;;-142.97;51.46
8451;BME280;4262;50.980;13.892;2023-01-16T17:50:50;50725.53;;;-142.97;51.63
8451;BME280;4262;50.980;13.892;2023-01-16T17:53:18;50729.44;;;-142.97;51.74
8451;BME280;4262;50.980;13.892;2023-01-16T17:55:47;50717.75;;;-142.97;51.66